createdAt,value
2023-02-21T00:01:21.538Z,4.42
2023-02-21T00:04:07.703Z,4.30
2023-02-21T00:06:53.770Z,4.33
2023-02-21T00:09:39.941Z,4.40
2023-02-21T00:12:26.695Z,4.40
2023-02-21T00:15:13.208Z,4.45
2023-02-21T00:18:00.651Z,4.37
2023-02-21T00:20:46.652Z,4.55
2023-02-21T00:23:32.777Z,4.61
2023-02-21T00:26:18.926Z,4.82
2023-02-21T00:29:04.536Z,4.77
2023-02-21T00:31:50.770Z,4.94
2023-02-21T00:34:37.501Z,4.91
2023-02-21T00:37:24.901Z,4.83
2023-02-21T00:40:10.265Z,4.84
2023-02-21T00:42:56.001Z,4.77
2023-02-21T00:45:41.469Z,4.65
2023-02-21T00:48:27.063Z,4.60
2023-02-21T00:51:14.590Z,4.43
2023-02-21T00:54:00.600Z,4.42
2023-02-21T00:56:46.267Z,4.33
2023-02-21T00:59:32.176Z,4.30
2023-02-21T01:02:17.770Z,4.47
2023-02-21T01:05:03.842Z,4.54
2023-02-21T01:07:52.065Z,4.52
2023-02-21T01:10:38.444Z,4.42
2023-02-21T01:13:24.124Z,4.37
2023-02-21T01:16:10.945Z,4.34
2023-02-21T01:18:56.961Z,4.32
2023-02-21T01:21:42.734Z,4.23
2023-02-21T01:24:32.700Z,4.11
2023-02-21T01:27:18.969Z,4.00
2023-02-21T01:30:06.549Z,3.93
2023-02-21T01:32:52.472Z,3.96
2023-02-21T01:35:38.519Z,4.00
2023-02-21T01:38:24.146Z,4.00
2023-02-21T01:41:11.557Z,3.77
2023-02-21T01:43:57.159Z,3.58
2023-02-21T01:46:42.788Z,3.57
2023-02-21T01:49:38.333Z,3.54
2023-02-21T01:52:25.101Z,3.43
2023-02-21T01:55:14.065Z,3.35
2023-02-21T01:58:04.932Z,3.32
2023-02-21T02:00:51.059Z,3.24
2023-02-21T02:03:39.596Z,3.27
2023-02-21T02:06:27.663Z,3.10
2023-02-21T02:09:13.804Z,3.05
2023-02-21T02:12:17.466Z,2.98
2023-02-21T02:15:05.343Z,2.93
2023-02-21T02:17:45.088Z,2.91
2023-02-21T02:20:53.390Z,2.92
2023-02-21T02:24:02.188Z,2.98
2023-02-21T02:27:19.389Z,3.00
2023-02-21T02:30:15.906Z,3.06
2023-02-21T02:33:13.447Z,3.12
2023-02-21T02:35:48.265Z,3.15
2023-02-21T02:38:25.405Z,3.19
2023-02-21T02:41:01.307Z,3.23
2023-02-21T02:43:34.338Z,3.21
2023-02-21T02:46:10.590Z,3.16
2023-02-21T02:48:44.627Z,3.22
2023-02-21T02:51:16.250Z,3.24
2023-02-21T02:53:45.435Z,3.18
2023-02-21T02:56:17.486Z,3.22
2023-02-21T02:59:01.026Z,3.23
2023-02-21T03:01:52.850Z,3.20
2023-02-21T03:04:49.973Z,3.18
2023-02-21T03:07:28.686Z,3.16
2023-02-21T03:10:05.283Z,3.23
2023-02-21T03:12:40.390Z,3.15
2023-02-21T03:15:14.616Z,3.12
2023-02-21T03:17:48.105Z,3.11
2023-02-21T03:20:19.254Z,3.16
2023-02-21T03:22:51.976Z,3.11
2023-02-21T03:25:22.985Z,3.17
2023-02-21T03:27:55.130Z,3.03
2023-02-21T03:30:26.101Z,3.01
2023-02-21T03:32:56.253Z,2.96
2023-02-21T03:35:25.734Z,2.73
2023-02-21T03:37:56.309Z,2.59
2023-02-21T03:40:27.213Z,2.53
2023-02-21T03:42:57.369Z,2.56
2023-02-21T03:45:26.053Z,2.50
2023-02-21T03:47:54.680Z,2.56
2023-02-21T03:50:24.686Z,2.56
2023-02-21T03:52:55.218Z,2.63
2023-02-21T03:55:23.990Z,2.71
2023-02-21T03:57:53.260Z,2.78
2023-02-21T04:00:22.366Z,2.91
2023-02-21T04:02:50.946Z,2.90
2023-02-21T04:05:19.857Z,3.10
2023-02-21T04:07:48.503Z,3.17
2023-02-21T04:10:19.490Z,3.31
2023-02-21T04:12:48.587Z,3.29
2023-02-21T04:15:17.176Z,3.39
2023-02-21T04:17:46.068Z,3.63
2023-02-21T04:20:16.294Z,3.62
2023-02-21T04:22:51.841Z,3.60
2023-02-21T04:25:28.120Z,3.73
2023-02-21T04:27:56.713Z,3.67
2023-02-21T04:30:25.720Z,3.70
2023-02-21T04:32:54.928Z,3.78
2023-02-21T04:35:23.604Z,3.89
2023-02-21T04:37:52.211Z,3.97
2023-02-21T04:40:21.080Z,3.92
2023-02-21T04:42:51.109Z,3.98
2023-02-21T04:45:20.005Z,4.03
2023-02-21T04:47:49.010Z,3.99
2023-02-21T04:50:18.603Z,4.00
2023-02-21T04:52:50.256Z,4.06
2023-02-21T04:55:19.193Z,4.06
2023-02-21T04:57:48.550Z,3.98
2023-02-21T05:00:19.412Z,4.00
2023-02-21T05:02:49.675Z,3.94
2023-02-21T05:05:18.669Z,4.03
2023-02-21T05:07:47.246Z,4.00
2023-02-21T05:10:17.744Z,3.95
2023-02-21T05:12:47.181Z,3.93
2023-02-21T05:15:17.998Z,3.84
2023-02-21T05:17:46.981Z,3.93
2023-02-21T05:20:15.750Z,3.87
2023-02-21T05:22:44.577Z,3.97
2023-02-21T05:25:18.361Z,3.94
2023-02-21T05:27:48.548Z,3.98
2023-02-21T05:30:21.682Z,4.06
2023-02-21T05:32:50.194Z,4.10
2023-02-21T05:35:19.927Z,4.16
2023-02-21T05:37:48.507Z,4.19
2023-02-21T05:40:18.504Z,4.13
2023-02-21T05:42:47.544Z,4.17
2023-02-21T05:45:17.853Z,4.12
2023-02-21T05:47:46.284Z,4.18
2023-02-21T05:50:16.987Z,4.13
2023-02-21T05:52:47.557Z,4.15
2023-02-21T05:55:17.223Z,4.28
2023-02-21T05:57:46.635Z,4.26
2023-02-21T06:00:20.716Z,4.25
2023-02-21T06:02:49.640Z,4.36
2023-02-21T06:05:18.267Z,4.38
2023-02-21T06:07:47.597Z,4.52
2023-02-21T06:10:17.035Z,4.53
2023-02-21T06:12:46.105Z,4.39
2023-02-21T06:15:16.032Z,4.36
2023-02-21T06:17:46.055Z,4.30
2023-02-21T06:20:17.264Z,4.29
2023-02-21T06:22:45.801Z,4.31
2023-02-21T06:25:14.079Z,4.40
2023-02-21T06:27:44.112Z,4.44
2023-02-21T06:30:14.509Z,4.46
2023-02-21T06:32:46.349Z,4.48
2023-02-21T06:35:17.661Z,4.47
2023-02-21T06:37:46.299Z,4.52
2023-02-21T06:40:16.062Z,4.56
2023-02-21T06:42:44.765Z,4.59
2023-02-21T06:45:13.320Z,4.63
2023-02-21T06:47:42.182Z,4.69
2023-02-21T06:50:11.029Z,4.78
2023-02-21T06:52:42.263Z,4.90
2023-02-21T06:55:11.770Z,5.03
2023-02-21T06:57:40.555Z,5.10
2023-02-21T07:00:10.287Z,5.19
2023-02-21T07:02:40.989Z,5.23
2023-02-21T07:05:10.490Z,5.32
2023-02-21T07:07:40.848Z,5.38
2023-02-21T07:10:09.811Z,5.41
2023-02-21T07:12:38.659Z,5.51
2023-02-21T07:15:08.268Z,5.41
2023-02-21T07:17:38.186Z,5.46
2023-02-21T07:20:07.183Z,5.42
2023-02-21T07:22:36.125Z,5.54
2023-02-21T07:25:07.327Z,5.61
2023-02-21T07:27:36.097Z,5.61
2023-02-21T07:30:05.170Z,5.62
2023-02-21T07:32:34.321Z,5.71
2023-02-21T07:35:03.241Z,5.87
2023-02-21T07:37:31.624Z,5.93
2023-02-21T07:40:00.300Z,6.09
2023-02-21T07:42:30.104Z,6.13
2023-02-21T07:44:59.767Z,6.16
2023-02-21T07:47:29.439Z,6.02
2023-02-21T07:49:58.784Z,6.22
2023-02-21T07:52:27.433Z,6.45
2023-02-21T07:54:56.846Z,6.58
2023-02-21T07:57:25.231Z,6.68
2023-02-21T07:59:55.126Z,6.72
2023-02-21T08:02:24.535Z,6.77
2023-02-21T08:04:54.227Z,6.83
2023-02-21T08:07:23.138Z,6.67
2023-02-21T08:09:51.736Z,6.55
2023-02-21T08:12:21.817Z,6.37
2023-02-21T08:14:50.329Z,6.32
2023-02-21T08:17:20.454Z,6.42
2023-02-21T08:19:49.116Z,6.36
2023-02-21T08:22:18.056Z,6.46
2023-02-21T08:24:46.489Z,6.52
2023-02-21T08:27:14.983Z,6.62
2023-02-21T08:29:43.801Z,6.66
2023-02-21T08:32:13.349Z,6.75
2023-02-21T08:34:46.148Z,6.84
2023-02-21T08:37:17.585Z,6.84
2023-02-21T08:39:47.398Z,7.05
2023-02-21T08:42:15.978Z,7.19
2023-02-21T08:44:47.285Z,7.36
2023-02-21T08:47:17.713Z,7.50
2023-02-21T08:49:49.259Z,7.83
2023-02-21T08:52:21.498Z,8.00
2023-02-21T08:54:50.480Z,8.14
2023-02-21T08:57:19.097Z,8.45
2023-02-21T08:59:47.535Z,8.67
2023-02-21T09:02:21.035Z,8.93
2023-02-21T09:04:51.248Z,9.03
2023-02-21T09:07:21.420Z,9.27
2023-02-21T09:09:50.237Z,9.43
2023-02-21T09:12:20.269Z,9.59
2023-02-21T09:14:48.563Z,9.65
2023-02-21T09:17:17.793Z,9.80
2023-02-21T09:19:47.226Z,9.59
2023-02-21T09:22:18.965Z,9.68
2023-02-21T09:24:47.883Z,9.80
2023-02-21T09:27:19.235Z,9.78
2023-02-21T09:29:47.704Z,9.75
2023-02-21T09:32:16.127Z,9.42
2023-02-21T09:34:44.893Z,9.42
2023-02-21T09:37:14.388Z,9.58
2023-02-21T09:39:44.225Z,9.60
2023-02-21T09:42:17.906Z,9.87
2023-02-21T09:44:48.968Z,9.94
2023-02-21T09:47:29.759Z,9.88
2023-02-21T09:50:05.243Z,9.76
2023-02-21T09:52:36.289Z,9.96
2023-02-21T09:55:10.636Z,10.10
2023-02-21T09:57:39.206Z,10.22
2023-02-21T10:00:19.135Z,10.17
2023-02-21T10:02:58.648Z,10.24
2023-02-21T10:05:40.171Z,10.29
2023-02-21T10:08:20.224Z,10.49
2023-02-21T10:10:55.917Z,10.70
2023-02-21T10:13:36.948Z,10.43
2023-02-21T10:16:10.801Z,10.46
2023-02-21T10:18:45.796Z,10.65
2023-02-21T10:21:19.359Z,10.46
2023-02-21T10:23:52.176Z,10.43
2023-02-21T10:26:27.403Z,10.74
2023-02-21T10:28:57.456Z,10.99
2023-02-21T10:31:33.071Z,10.88
2023-02-21T10:34:03.378Z,10.64
2023-02-21T10:36:32.356Z,10.71
2023-02-21T10:39:08.495Z,10.92
2023-02-21T10:41:43.841Z,11.12
2023-02-21T10:44:18.762Z,11.08
2023-02-21T10:46:53.723Z,11.26
2023-02-21T10:49:29.235Z,11.34
2023-02-21T10:52:12.752Z,11.42
2023-02-21T10:54:42.140Z,11.16
2023-02-21T10:57:14.963Z,11.30
2023-02-21T10:59:45.626Z,11.56
2023-02-21T11:02:31.385Z,11.70
2023-02-21T11:05:14.508Z,11.57
2023-02-21T11:07:57.802Z,11.63
2023-02-21T11:10:33.237Z,11.71
2023-02-21T11:13:16.984Z,11.77
2023-02-21T11:15:48.205Z,11.69
2023-02-21T11:18:20.294Z,11.61
2023-02-21T11:20:49.904Z,11.88
2023-02-21T11:23:29.951Z,11.81
2023-02-21T11:26:09.602Z,11.81
2023-02-21T11:28:45.286Z,11.88
2023-02-21T11:31:19.444Z,11.88
2023-02-21T11:33:58.414Z,11.76
2023-02-21T11:36:31.182Z,11.97
2023-02-21T11:39:18.181Z,11.80
2023-02-21T11:41:51.289Z,11.87
2023-02-21T11:44:31.008Z,12.10
2023-02-21T11:47:15.807Z,12.14
2023-02-21T11:49:52.778Z,12.10
2023-02-21T11:52:28.353Z,12.10
2023-02-21T11:54:57.145Z,11.62
2023-02-21T11:57:33.297Z,11.78
2023-02-21T12:00:14.440Z,11.62
2023-02-21T12:03:08.129Z,11.45
2023-02-21T12:05:50.210Z,11.37
2023-02-21T12:08:47.988Z,11.26
2023-02-21T12:11:32.750Z,11.29
2023-02-21T12:14:16.034Z,11.32
2023-02-21T12:16:57.399Z,11.33
2023-02-21T12:19:47.578Z,11.29
2023-02-21T12:22:31.422Z,11.41
2023-02-21T12:25:14.147Z,11.31
2023-02-21T12:27:54.209Z,11.37
2023-02-21T12:30:39.185Z,11.39
2023-02-21T12:33:26.256Z,11.46
2023-02-21T12:36:21.077Z,11.48
2023-02-21T12:39:03.379Z,11.42
2023-02-21T12:41:57.720Z,11.63
2023-02-21T12:44:35.619Z,11.72
2023-02-21T12:47:10.556Z,11.81
2023-02-21T12:49:46.836Z,12.01
2023-02-21T12:52:19.639Z,12.38
2023-02-21T12:54:57.202Z,12.51
2023-02-21T12:57:32.528Z,12.37
2023-02-21T13:00:08.538Z,12.25
2023-02-21T13:02:47.144Z,12.13
2023-02-21T13:05:22.658Z,12.16
2023-02-21T13:07:56.717Z,12.16
2023-02-21T13:10:27.139Z,12.24
2023-02-21T13:12:59.776Z,12.25
2023-02-21T13:15:31.379Z,12.22
2023-02-21T13:18:03.413Z,12.27
2023-02-21T13:20:39.819Z,12.41
2023-02-21T13:23:27.379Z,12.42
2023-02-21T13:26:14.904Z,12.34
2023-02-21T13:28:46.272Z,12.27
2023-02-21T13:31:22.808Z,12.28
2023-02-21T13:33:54.486Z,12.39
2023-02-21T13:36:28.906Z,12.41
2023-02-21T13:39:13.651Z,12.45
2023-02-21T13:41:46.450Z,12.59
2023-02-21T13:44:20.606Z,12.79
2023-02-21T13:47:10.677Z,13.04
2023-02-21T13:49:43.058Z,13.16
2023-02-21T13:52:39.138Z,13.15
2023-02-21T13:55:36.930Z,13.23
2023-02-21T13:58:26.645Z,13.05
2023-02-21T14:00:56.333Z,13.05
2023-02-21T14:03:34.155Z,13.17
2023-02-21T14:06:38.002Z,13.23
2023-02-21T14:09:16.889Z,13.33
2023-02-21T14:11:52.533Z,13.41
2023-02-21T14:14:26.132Z,13.49
2023-02-21T14:17:02.391Z,13.35
2023-02-21T14:19:37.168Z,13.25
2023-02-21T14:22:13.299Z,13.26
2023-02-21T14:24:45.761Z,13.14
2023-02-21T14:27:36.978Z,13.15
2023-02-21T14:30:38.929Z,13.18
2023-02-21T14:33:24.064Z,13.31
2023-02-21T14:36:01.773Z,13.24
2023-02-21T14:38:34.368Z,13.62
2023-02-21T14:41:20.969Z,13.63
2023-02-21T14:44:01.920Z,13.52
2023-02-21T14:47:10.968Z,13.45
2023-02-21T14:50:15.361Z,13.29
2023-02-21T14:53:37.549Z,13.16
2023-02-21T14:56:40.728Z,13.06
2023-02-21T14:59:38.970Z,13.07
2023-02-21T15:02:19.959Z,13.06
2023-02-21T15:04:57.389Z,13.08
2023-02-21T15:07:34.443Z,13.11
2023-02-21T15:10:10.791Z,13.06
2023-02-21T15:12:44.697Z,13.16
2023-02-21T15:15:19.233Z,13.16
2023-02-21T15:17:57.841Z,13.23
2023-02-21T15:20:26.875Z,13.06
2023-02-21T15:23:01.266Z,13.00
2023-02-21T15:25:30.152Z,12.92
2023-02-21T15:28:07.991Z,12.86
2023-02-21T15:30:40.426Z,12.97
2023-02-21T15:33:20.573Z,13.12
2023-02-21T15:35:54.589Z,13.16
2023-02-21T15:38:25.878Z,13.14
2023-02-21T15:40:58.449Z,12.98
2023-02-21T15:43:36.066Z,12.81
2023-02-21T15:46:09.592Z,12.70
2023-02-21T15:48:42.293Z,12.62
2023-02-21T15:51:13.763Z,12.52
2023-02-21T15:53:43.555Z,12.45
2023-02-21T15:56:28.903Z,12.33
2023-02-21T15:59:15.644Z,12.33
2023-02-21T16:01:44.166Z,12.28
2023-02-21T16:04:21.670Z,12.24
2023-02-21T16:06:55.666Z,12.20
2023-02-21T16:09:28.019Z,12.15
2023-02-21T16:12:01.620Z,11.99
2023-02-21T16:14:41.078Z,12.08
2023-02-21T16:17:20.547Z,12.16
2023-02-21T16:19:54.453Z,12.13
2023-02-21T16:22:34.158Z,12.00
2023-02-21T16:25:14.601Z,12.05
2023-02-21T16:27:45.338Z,11.93
2023-02-21T16:30:23.033Z,11.89
2023-02-21T16:32:53.679Z,11.91
2023-02-21T16:35:25.860Z,11.86
2023-02-21T16:37:57.962Z,11.76
2023-02-21T16:40:29.123Z,11.52
2023-02-21T16:42:59.372Z,11.41
2023-02-21T16:45:30.431Z,11.46
2023-02-21T16:48:02.103Z,11.41
2023-02-21T16:50:33.823Z,11.26
2023-02-21T16:53:03.385Z,10.97
2023-02-21T16:55:33.355Z,10.79
2023-02-21T16:58:06.314Z,10.65
2023-02-21T17:00:37.467Z,10.74
2023-02-21T17:03:06.675Z,10.53
2023-02-21T17:05:36.200Z,10.35
2023-02-21T17:08:06.322Z,10.14
2023-02-21T17:10:35.238Z,9.98
2023-02-21T17:13:04.659Z,9.97
2023-02-21T17:15:33.957Z,9.96
2023-02-21T17:18:05.283Z,10.00
2023-02-21T17:20:34.050Z,9.89
2023-02-21T17:23:04.627Z,9.80
2023-02-21T17:25:35.227Z,9.79
2023-02-21T17:28:04.449Z,9.81
2023-02-21T17:30:33.766Z,9.87
2023-02-21T17:33:08.602Z,9.73
2023-02-21T17:35:37.039Z,9.76
2023-02-21T17:38:06.273Z,9.89
2023-02-21T17:40:35.283Z,9.77
2023-02-21T17:43:08.295Z,9.62
2023-02-21T17:45:38.263Z,9.54
2023-02-21T17:48:09.435Z,9.43
2023-02-21T17:50:40.070Z,9.29
2023-02-21T17:53:09.164Z,9.29
2023-02-21T17:55:40.167Z,9.15
2023-02-21T17:58:10.541Z,9.16
2023-02-21T18:00:40.052Z,9.06
2023-02-21T18:03:10.842Z,9.07
2023-02-21T18:05:41.626Z,9.00
2023-02-21T18:08:10.493Z,8.99
2023-02-21T18:10:39.962Z,9.12
2023-02-21T18:13:08.534Z,9.12
2023-02-21T18:15:37.984Z,9.27
2023-02-21T18:18:08.401Z,9.15
2023-02-21T18:20:44.088Z,9.06
2023-02-21T18:23:13.471Z,9.02
2023-02-21T18:25:42.780Z,9.16
2023-02-21T18:28:13.261Z,9.06
2023-02-21T18:30:43.890Z,8.89
2023-02-21T18:33:14.715Z,8.74
2023-02-21T18:35:48.503Z,8.66
2023-02-21T18:38:19.081Z,8.54
2023-02-21T18:40:48.832Z,8.62
2023-02-21T18:43:22.747Z,8.55
2023-02-21T18:45:54.398Z,8.44
2023-02-21T18:48:25.657Z,8.30
2023-02-21T18:50:58.087Z,8.10
2023-02-21T18:53:27.093Z,8.01
2023-02-21T18:55:56.343Z,7.83
2023-02-21T18:58:25.237Z,7.81
2023-02-21T19:00:56.351Z,7.75
2023-02-21T19:03:25.506Z,7.63
2023-02-21T19:05:56.819Z,7.47
2023-02-21T19:08:25.912Z,7.36
2023-02-21T19:10:55.440Z,7.28
2023-02-21T19:13:24.280Z,7.16
2023-02-21T19:15:54.973Z,7.07
2023-02-21T19:18:24.283Z,6.98
2023-02-21T19:21:02.276Z,7.02
2023-02-21T19:23:31.004Z,6.98
2023-02-21T19:26:00.731Z,6.94
2023-02-21T19:28:31.210Z,6.83
2023-02-21T19:31:00.192Z,6.72
2023-02-21T19:33:31.408Z,6.67
2023-02-21T19:36:06.315Z,6.65
2023-02-21T19:38:36.616Z,6.50
2023-02-21T19:41:08.413Z,6.49
2023-02-21T19:43:38.251Z,6.44
2023-02-21T19:46:09.436Z,6.46
2023-02-21T19:48:39.462Z,6.40
2023-02-21T19:51:16.920Z,6.39
2023-02-21T19:53:46.458Z,6.41
2023-02-21T19:56:15.906Z,6.33
2023-02-21T19:58:46.105Z,6.32
2023-02-21T20:01:15.827Z,6.31
2023-02-21T20:03:45.796Z,6.22
2023-02-21T20:06:17.278Z,6.13
2023-02-21T20:08:48.830Z,6.15
2023-02-21T20:11:20.902Z,6.13
2023-02-21T20:13:54.872Z,6.09
2023-02-21T20:16:26.052Z,6.03
2023-02-21T20:18:57.992Z,5.94
2023-02-21T20:21:32.549Z,5.83
2023-02-21T20:24:02.056Z,5.84
2023-02-21T20:26:33.339Z,5.81
2023-02-21T20:29:03.324Z,5.85
2023-02-21T20:31:36.544Z,5.86
2023-02-21T20:34:07.616Z,5.82
2023-02-21T20:36:39.836Z,5.88
2023-02-21T20:39:10.168Z,5.87
2023-02-21T20:41:40.720Z,5.80
2023-02-21T20:44:12.014Z,5.76
2023-02-21T20:46:41.212Z,5.63
2023-02-21T20:49:14.594Z,5.41
2023-02-21T20:51:46.153Z,5.39
2023-02-21T20:54:20.988Z,5.31
2023-02-21T20:56:51.696Z,5.33
2023-02-21T20:59:22.978Z,5.30
2023-02-21T21:01:53.260Z,5.06
2023-02-21T21:04:27.308Z,4.94
2023-02-21T21:07:00.486Z,4.89
2023-02-21T21:09:37.736Z,4.86
2023-02-21T21:12:10.109Z,4.83
2023-02-21T21:14:41.813Z,4.74
2023-02-21T21:17:12.962Z,4.80
2023-02-21T21:19:43.656Z,4.74
2023-02-21T21:22:16.350Z,4.93
2023-02-21T21:24:46.401Z,4.85
2023-02-21T21:27:16.382Z,4.87
2023-02-21T21:29:47.612Z,4.89
2023-02-21T21:32:19.761Z,4.88
2023-02-21T21:34:53.007Z,4.90
2023-02-21T21:37:27.367Z,4.72
2023-02-21T21:39:57.145Z,4.65
2023-02-21T21:42:28.054Z,4.76
2023-02-21T21:44:58.996Z,4.79
2023-02-21T21:47:32.500Z,4.80
2023-02-21T21:50:05.377Z,4.72
2023-02-21T21:52:37.983Z,4.44
2023-02-21T21:55:10.359Z,4.43
2023-02-21T21:57:40.511Z,4.38
2023-02-21T22:00:25.012Z,4.31
2023-02-21T22:02:57.958Z,4.28
2023-02-21T22:05:27.932Z,4.18
2023-02-21T22:07:58.824Z,4.20
2023-02-21T22:10:28.613Z,4.20
2023-02-21T22:13:00.474Z,4.17
2023-02-21T22:15:32.829Z,4.14
2023-02-21T22:18:04.592Z,4.00
2023-02-21T22:20:37.053Z,4.04
2023-02-21T22:23:08.833Z,4.00
2023-02-21T22:25:38.335Z,4.05
2023-02-21T22:28:10.114Z,4.04
2023-02-21T22:30:40.388Z,4.01
2023-02-21T22:33:16.161Z,3.98
2023-02-21T22:35:45.773Z,3.96
2023-02-21T22:38:18.237Z,3.94
2023-02-21T22:40:48.364Z,3.89
2023-02-21T22:43:20.454Z,3.90
2023-02-21T22:45:50.648Z,3.94
2023-02-21T22:48:22.016Z,3.93
2023-02-21T22:50:52.474Z,3.93
2023-02-21T22:53:23.597Z,3.91
2023-02-21T22:55:53.918Z,3.87
2023-02-21T22:58:24.549Z,3.85
2023-02-21T23:00:55.016Z,3.87
2023-02-21T23:03:24.621Z,3.81
2023-02-21T23:05:55.861Z,3.84
2023-02-21T23:08:27.699Z,3.91
2023-02-21T23:10:58.066Z,3.83
2023-02-21T23:13:28.164Z,3.87
2023-02-21T23:15:59.274Z,3.84
2023-02-21T23:18:29.024Z,3.76
2023-02-21T23:20:59.270Z,3.65
2023-02-21T23:23:30.792Z,3.68
2023-02-21T23:26:00.843Z,3.63
2023-02-21T23:28:31.561Z,3.56
2023-02-21T23:31:00.511Z,3.54
2023-02-21T23:33:34.568Z,3.39
2023-02-21T23:36:05.425Z,3.39
2023-02-21T23:38:38.915Z,3.36
2023-02-21T23:41:10.680Z,3.25
2023-02-21T23:43:40.299Z,3.30
2023-02-21T23:46:09.822Z,3.27
2023-02-21T23:48:39.310Z,3.29
2023-02-21T23:51:08.537Z,3.24
2023-02-21T23:53:39.787Z,3.24
2023-02-21T23:56:09.384Z,3.17
2023-02-21T23:58:39.576Z,2.99
